Time;durP1;ratioP1;P1;durP2;ratioP2;P2;SDS_P1;SDS_P2;PMS_P1;PMS_P2;Temp;Humidity;BMP_temperature;BMP_pressure;BME280_temperature;BME280_humidity;BME280_pressure;Samples;Min_cycle;Max_cycle;Signal;HPM_P1;HPM_P2
2022/07/28 00:01:46;;;;;;;0.37;0.37;;;18.40;72.20;;;;;;4943542;29;20118;-79
2022/07/28 00:04:11;;;;;;;0.00;0.00;;;18.40;72.50;;;;;;4943283;29;20093;-79
2022/07/28 00:06:37;;;;;;;0.43;0.43;;;18.40;72.80;;;;;;4942646;29;20032;-78
2022/07/28 00:09:03;;;;;;;0.20;0.20;;;18.30;72.90;;;;;;4940859;29;20063;-80
2022/07/28 00:11:29;;;;;;;0.03;0.03;;;18.30;73.00;;;;;;4938149;29;20042;-80
2022/07/28 00:13:54;;;;;;;0.20;0.20;;;18.20;73.20;;;;;;4938576;29;20058;-79
2022/07/28 00:16:20;;;;;;;0.03;0.03;;;18.30;73.30;;;;;;4923245;29;20775;-79
2022/07/28 00:18:46;;;;;;;0.10;0.10;;;18.20;73.70;;;;;;4938170;29;20035;-79
2022/07/28 00:21:12;;;;;;;0.10;0.10;;;18.10;74.40;;;;;;4938772;29;20027;-79
2022/07/28 00:23:38;;;;;;;0.00;0.00;;;18.00;75.10;;;;;;4939539;29;20031;-78
2022/07/28 00:26:04;;;;;;;0.00;0.00;;;18.00;75.70;;;;;;4940433;29;20511;-79
2022/07/28 00:28:29;;;;;;;0.17;0.17;;;17.90;76.20;;;;;;4938654;29;20098;-79
2022/07/28 00:30:55;;;;;;;0.10;0.10;;;17.90;76.50;;;;;;4924565;29;20235;-79
2022/07/28 00:33:21;;;;;;;0.13;0.13;;;17.90;76.70;;;;;;4937942;29;20311;-78
2022/07/28 00:35:46;;;;;;;0.10;0.10;;;17.90;76.90;;;;;;4937933;29;20550;-79
2022/07/28 00:38:12;;;;;;;0.00;0.00;;;17.90;76.80;;;;;;4938116;29;20031;-79
2022/07/28 00:43:22;;;;;;;0.08;0.08;;;17.90;76.70;;;;;;4936677;29;20078;-81
2022/07/28 00:45:47;;;;;;;0.03;0.03;;;17.80;76.90;;;;;;4937549;29;20583;-81
2022/07/28 00:48:13;;;;;;;0.00;0.00;;;17.80;77.10;;;;;;4938340;29;20035;-81
2022/07/28 00:50:39;;;;;;;0.00;0.00;;;17.80;77.30;;;;;;4941988;29;20035;-79
2022/07/28 00:53:06;;;;;;;0.10;0.10;;;17.70;77.80;;;;;;4939432;29;20039;-80
2022/07/28 00:55:32;;;;;;;0.55;0.28;;;17.60;77.90;;;;;;4940328;29;20039;-79
2022/07/28 00:57:57;;;;;;;0.30;0.30;;;17.70;77.90;;;;;;4940245;28;20083;-79
2022/07/28 01:00:23;;;;;;;0.30;0.30;;;17.60;77.90;;;;;;4939580;29;20477;-79
2022/07/28 01:02:49;;;;;;;0.10;0.10;;;17.50;78.40;;;;;;4943583;28;20579;-79
2022/07/28 01:05:15;;;;;;;0.10;0.10;;;17.50;78.40;;;;;;4942892;29;20038;-79
2022/07/28 01:08:09;;;;;;;0.10;0.10;;;17.50;78.70;;;;;;4943937;29;20632;-80
2022/07/28 01:11:29;;;;;;;0.43;0.30;;;17.50;78.90;;;;;;4940787;29;20916;-79
2022/07/28 01:14:14;;;;;;;0.20;0.20;;;17.40;79.20;;;;;;4862819;29;20053;-79
2022/07/28 01:16:55;;;;;;;0.15;0.13;;;17.50;79.30;;;;;;4862007;29;20128;-80
2022/07/28 01:19:39;;;;;;;0.10;0.10;;;17.40;79.60;;;;;;4862492;29;20168;-80
2022/07/28 01:22:09;;;;;;;0.10;0.10;;;17.40;79.40;;;;;;4863523;29;20041;-80
2022/07/28 01:24:47;;;;;;;0.00;0.00;;;17.50;79.10;;;;;;4848299;29;20037;-79
2022/07/28 01:27:36;;;;;;;0.75;0.57;;;17.50;79.30;;;;;;4866373;29;20101;-79
2022/07/28 01:30:15;;;;;;;0.10;0.10;;;17.40;79.80;;;;;;4863992;29;20072;-78
2022/07/28 01:32:46;;;;;;;0.00;0.00;;;17.30;80.60;;;;;;4862192;29;20457;-77
2022/07/28 01:35:22;;;;;;;0.05;0.05;;;17.30;80.70;;;;;;4863134;29;20041;-80
2022/07/28 01:37:53;;;;;;;0.00;0.00;;;17.20;81.30;;;;;;4862451;29;20528;-80
2022/07/28 01:40:24;;;;;;;0.25;0.25;;;17.10;81.80;;;;;;4862633;29;20040;-80
2022/07/28 01:42:55;;;;;;;0.10;0.10;;;17.10;82.10;;;;;;4861925;29;20514;-80
2022/07/28 01:45:22;;;;;;;0.00;0.00;;;17.10;82.40;;;;;;4866338;29;20045;-78
2022/07/28 01:47:50;;;;;;;0.15;0.15;;;17.10;82.70;;;;;;4861489;29;20041;-79
2022/07/28 01:50:17;;;;;;;0.00;0.00;;;17.00;83.00;;;;;;4935934;29;20050;-79
2022/07/28 01:52:46;;;;;;;0.10;0.10;;;16.90;83.70;;;;;;4940721;28;20569;-79
2022/07/28 01:55:13;;;;;;;0.15;0.15;;;16.80;84.40;;;;;;4941526;29;20949;-80
2022/07/28 01:57:40;;;;;;;0.10;0.10;;;16.80;84.60;;;;;;4943769;29;20114;-80
2022/07/28 02:00:11;;;;;;;0.30;0.30;;;16.90;84.90;;;;;;4939528;28;20043;-80
2022/07/28 02:02:39;;;;;;;0.10;0.10;;;16.80;85.20;;;;;;4942101;29;20033;-79
2022/07/28 02:05:07;;;;;;;0.10;0.10;;;16.80;85.20;;;;;;4940084;29;20695;-79
2022/07/28 02:07:34;;;;;;;0.10;0.10;;;16.90;85.00;;;;;;4938483;28;20184;-80
2022/07/28 02:10:01;;;;;;;0.03;0.03;;;16.90;85.20;;;;;;4922366;29;20039;-80
2022/07/28 02:12:28;;;;;;;0.93;0.80;;;16.90;85.20;;;;;;4940887;29;20035;-79
2022/07/28 02:14:55;;;;;;;0.00;0.00;;;16.90;85.10;;;;;;4939800;28;20585;-80
2022/07/28 02:17:24;;;;;;;;;;;16.90;85.30;;;;;;4939297;29;20100;-80
2022/07/28 02:19:53;;;;;;;0.10;0.10;;;16.80;86.00;;;;;;4939947;29;19918;-79
2022/07/28 02:22:19;;;;;;;0.00;0.00;;;16.70;86.50;;;;;;4938673;29;20035;-80
2022/07/28 02:24:47;;;;;;;0.10;0.10;;;16.60;86.90;;;;;;4941184;29;20027;-80
2022/07/28 02:27:23;;;;;;;0.10;0.10;;;16.60;87.60;;;;;;4944040;29;20031;-80
2022/07/28 02:29:58;;;;;;;0.20;0.20;;;16.60;88.10;;;;;;4938751;29;20098;-80
2022/07/28 02:32:38;;;;;;;0.28;0.20;;;16.50;88.40;;;;;;4939699;29;20032;-80
2022/07/28 02:35:26;;;;;;;0.10;0.10;;;16.50;89.00;;;;;;4938585;29;20051;-80
2022/07/28 02:38:03;;;;;;;0.10;0.10;;;16.40;89.90;;;;;;4921178;29;20534;-80
2022/07/28 02:40:35;;;;;;;0.50;0.50;;;16.40;90.10;;;;;;4938844;29;20096;-80
2022/07/28 02:43:02;;;;;;;0.38;0.38;;;16.40;90.30;;;;;;4939319;29;20031;-79
2022/07/28 02:45:30;;;;;;;0.32;0.32;;;16.30;90.70;;;;;;4937417;29;20035;-79
2022/07/28 02:48:01;;;;;;;0.47;0.47;;;16.30;91.00;;;;;;4938751;29;20035;-80
2022/07/28 02:50:28;;;;;;;0.10;0.10;;;16.20;91.30;;;;;;4941809;29;20019;-79
2022/07/28 02:53:01;;;;;;;0.10;0.10;;;16.20;91.80;;;;;;4942939;29;20058;-80
2022/07/28 02:55:28;;;;;;;0.80;0.68;;;16.20;92.00;;;;;;4941505;29;20039;-80
2022/07/28 02:57:56;;;;;;;0.10;0.10;;;16.10;92.40;;;;;;4942219;29;20086;-80
2022/07/28 03:00:23;;;;;;;0.10;0.10;;;16.00;92.90;;;;;;4938479;28;20027;-79
2022/07/28 03:02:50;;;;;;;0.10;0.10;;;16.00;93.20;;;;;;4939121;29;20415;-81
2022/07/28 03:05:16;;;;;;;0.00;0.00;;;16.00;93.60;;;;;;4940172;29;20515;-81
2022/07/28 03:07:42;;;;;;;0.52;0.47;;;16.00;93.80;;;;;;4940451;29;20134;-81
2022/07/28 03:10:25;;;;;;;0.10;0.10;;;16.00;93.80;;;;;;4939001;29;20035;-80
2022/07/28 03:12:52;;;;;;;0.13;0.13;;;16.10;93.70;;;;;;4937420;29;20031;-81
2022/07/28 03:15:18;;;;;;;0.98;0.25;;;16.00;94.10;;;;;;4938694;29;20047;-81
2022/07/28 03:17:44;;;;;;;0.38;0.38;;;15.90;94.40;;;;;;4938223;29;20106;-80
2022/07/28 03:20:11;;;;;;;0.20;0.20;;;15.80;94.80;;;;;;4920014;29;20039;-79
2022/07/28 03:22:37;;;;;;;;;;;15.80;95.30;;;;;;4938296;28;20042;-81
2022/07/28 03:25:21;;;;;;;0.13;0.13;;;15.70;96.00;;;;;;4938938;28;19914;-82
2022/07/28 03:27:49;;;;;;;0.20;0.20;;;15.60;96.50;;;;;;4942787;29;20146;-80
2022/07/28 03:30:19;;;;;;;0.10;0.10;;;15.60;97.00;;;;;;4937314;29;20790;-80
2022/07/28 03:32:49;;;;;;;0.10;0.10;;;15.50;97.40;;;;;;4919566;29;20503;-79
2022/07/28 03:35:16;;;;;;;0.15;0.15;;;15.50;97.40;;;;;;4937572;29;20038;-78
2022/07/28 03:38:12;;;;;;;0.00;0.00;;;15.40;98.20;;;;;;4937793;29;20023;-78
2022/07/28 03:40:38;;;;;;;0.00;0.00;;;15.40;98.70;;;;;;4935991;29;20503;-79
2022/07/28 03:43:07;;;;;;;0.08;0.08;;;15.30;99.10;;;;;;4938194;29;20031;-79
2022/07/28 03:45:33;;;;;;;0.10;0.10;;;15.30;99.70;;;;;;4939334;29;20070;-80
2022/07/28 03:48:00;;;;;;;0.10;0.10;;;15.20;99.90;;;;;;4938137;29;20031;-79
2022/07/28 03:50:28;;;;;;;1.00;0.98;;;15.10;99.90;;;;;;4938902;29;20059;-80
2022/07/28 03:52:55;;;;;;;0.10;0.10;;;15.10;99.90;;;;;;4938133;29;20039;-81
2022/07/28 03:55:21;;;;;;;0.10;0.10;;;15.10;99.90;;;;;;4937869;29;20093;-81
2022/07/28 03:57:47;;;;;;;0.20;0.20;;;15.10;99.90;;;;;;4941778;29;20851;-82
2022/07/28 04:00:14;;;;;;;0.20;0.20;;;15.00;99.90;;;;;;4938257;28;20043;-80
2022/07/28 04:02:44;;;;;;;0.10;0.10;;;15.10;99.90;;;;;;4938770;29;20035;-81
2022/07/28 04:05:19;;;;;;;0.15;0.15;;;15.10;99.90;;;;;;4939804;29;20038;-81
2022/07/28 04:07:45;;;;;;;0.10;0.10;;;15.00;99.90;;;;;;4937574;29;20032;-82
2022/07/28 04:10:14;;;;;;;0.30;0.30;;;15.00;99.90;;;;;;4938732;29;20059;-83
2022/07/28 04:12:49;;;;;;;0.25;0.13;;;14.90;99.90;;;;;;4937255;29;20035;-83
2022/07/28 04:15:16;;;;;;;0.10;0.10;;;14.90;99.90;;;;;;4937569;29;20055;-82
2022/07/28 04:17:43;;;;;;;0.10;0.10;;;14.90;99.90;;;;;;4940238;29;20062;-82
2022/07/28 04:20:10;;;;;;;0.13;0.13;;;14.90;99.90;;;;;;4942878;29;20039;-83
2022/07/28 04:22:36;;;;;;;0.20;0.20;;;14.80;99.90;;;;;;4942082;29;20114;-82
2022/07/28 04:25:03;;;;;;;0.10;0.10;;;14.80;99.90;;;;;;4943661;29;20031;-82
2022/07/28 04:27:29;;;;;;;0.20;0.10;;;14.80;99.90;;;;;;4943596;29;20350;-83
2022/07/28 04:29:55;;;;;;;0.30;0.30;;;14.70;99.90;;;;;;4944505;29;20632;-83
2022/07/28 04:32:21;;;;;;;0.20;0.20;;;14.60;99.90;;;;;;4941751;28;20523;-84
2022/07/28 04:34:47;;;;;;;0.13;0.13;;;14.60;99.90;;;;;;4947211;29;20050;-83
2022/07/28 04:37:13;;;;;;;0.32;0.32;;;14.70;99.90;;;;;;4947921;29;20055;-83
2022/07/28 04:39:40;;;;;;;6.38;0.38;;;14.70;99.90;;;;;;4927381;29;20127;-82
2022/07/28 04:42:06;;;;;;;0.25;0.20;;;14.70;99.90;;;;;;4942664;29;20046;-83
2022/07/28 04:44:32;;;;;;;0.10;0.10;;;14.70;99.90;;;;;;4944981;29;20408;-82
2022/07/28 04:46:58;;;;;;;0.10;0.10;;;14.80;99.90;;;;;;4946693;29;20834;-82
2022/07/28 04:49:23;;;;;;;0.20;0.20;;;15.20;99.90;;;;;;4946563;29;20036;-82
2022/07/28 04:51:51;;;;;;;0.57;0.33;;;15.70;99.90;;;;;;4946099;29;20039;-85
2022/07/28 04:54:17;;;;;;;0.20;0.20;;;16.00;99.80;;;;;;4947887;29;20050;-81
2022/07/28 04:56:43;;;;;;;0.10;0.10;;;16.30;98.40;;;;;;4946945;29;20600;-79
2022/07/28 04:59:09;;;;;;;0.00;0.00;;;16.40;97.60;;;;;;4952410;28;20034;-78
2022/07/28 05:01:37;;;;;;;0.65;0.32;;;16.70;96.60;;;;;;4946392;29;20039;-81
2022/07/28 05:04:04;;;;;;;0.10;0.10;;;16.90;95.50;;;;;;4946061;29;20135;-78
2022/07/28 05:06:30;;;;;;;;;;;17.10;94.80;;;;;;4947268;29;20070;-79
2022/07/28 05:08:56;;;;;;;0.20;0.20;;;17.30;93.80;;;;;;4946145;29;20385;-77
2022/07/28 05:11:21;;;;;;;0.10;0.10;;;17.60;93.00;;;;;;4945570;29;20100;-78
2022/07/28 05:13:47;;;;;;;0.20;0.20;;;17.70;92.30;;;;;;4946442;29;20558;-77
2022/07/28 05:16:13;;;;;;;0.00;0.00;;;17.90;91.70;;;;;;4946012;29;20046;-76
2022/07/28 05:18:38;;;;;;;0.00;0.00;;;18.40;90.50;;;;;;4941341;29;20039;-76
2022/07/28 05:21:04;;;;;;;0.10;0.10;;;18.20;91.70;;;;;;4946724;29;20063;-76
2022/07/28 05:23:29;;;;;;;0.10;0.10;;;18.10;91.40;;;;;;4946185;29;20094;-76
2022/07/28 05:25:55;;;;;;;0.90;0.57;;;18.40;90.50;;;;;;4946628;29;20050;-77
2022/07/28 05:28:21;;;;;;;0.00;0.00;;;18.50;90.00;;;;;;4939110;29;20046;-76
2022/07/28 05:30:47;;;;;;;0.10;0.10;;;18.60;90.00;;;;;;4937936;29;20031;-76
2022/07/28 05:33:15;;;;;;;0.00;0.00;;;19.20;87.00;;;;;;4928881;29;20520;-76
2022/07/28 05:35:41;;;;;;;0.10;0.10;;;19.50;86.10;;;;;;4946572;29;20031;-77
2022/07/28 05:38:06;;;;;;;0.00;0.00;;;19.20;87.40;;;;;;4944409;29;20059;-76
2022/07/28 05:40:32;;;;;;;0.23;0.20;;;19.80;86.00;;;;;;4945553;29;20500;-77
2022/07/28 05:42:58;;;;;;;0.13;0.13;;;19.60;88.30;;;;;;4928363;28;20491;-78
2022/07/28 05:45:23;;;;;;;0.03;0.03;;;20.20;81.50;;;;;;4945604;29;20580;-82
2022/07/28 05:47:51;;;;;;;0.00;0.00;;;21.20;78.50;;;;;;4927227;29;20430;-83
2022/07/28 05:50:19;;;;;;;0.20;0.20;;;21.90;74.50;;;;;;4941947;29;20114;-91
2022/07/28 05:52:46;;;;;;;0.00;0.00;;;22.60;73.20;;;;;;4950402;29;20024;-93
2022/07/28 05:55:12;;;;;;;0.10;0.10;;;23.00;70.80;;;;;;4954980;29;20042;-87
2022/07/28 05:57:38;;;;;;;0.10;0.10;;;23.70;69.50;;;;;;4953515;29;20130;-94
2022/07/28 06:00:13;;;;;;;0.10;0.10;;;23.50;68.10;;;;;;4950142;29;20118;-92
2022/07/28 06:02:40;;;;;;;0.10;0.10;;;23.90;68.30;;;;;;4949943;29;20046;-89
2022/07/28 06:05:06;;;;;;;49.85;1.17;;;24.70;66.20;;;;;;4947149;29;20519;-90
2022/07/28 06:07:32;;;;;;;0.00;0.00;;;25.10;63.50;;;;;;4948706;29;20511;-96
2022/07/28 06:09:58;;;;;;;0.00;0.00;;;25.10;64.40;;;;;;4933897;29;20038;-91
2022/07/28 06:12:23;;;;;;;0.30;0.00;;;24.70;64.00;;;;;;4934498;29;20496;-90
2022/07/28 06:14:49;;;;;;;0.10;0.00;;;24.10;66.00;;;;;;4950183;29;20039;-89
2022/07/28 06:17:15;;;;;;;0.03;0.03;;;22.70;69.80;;;;;;4947149;29;20298;-87
2022/07/28 06:19:42;;;;;;;0.00;0.00;;;23.80;68.20;;;;;;4946640;29;20054;-86
2022/07/28 06:22:08;;;;;;;0.00;0.00;;;24.80;65.30;;;;;;4929486;29;20138;-86
2022/07/28 06:24:34;;;;;;;0.08;0.08;;;24.80;64.20;;;;;;4946836;29;20058;-86
2022/07/28 06:27:01;;;;;;;0.22;0.10;;;25.10;63.80;;;;;;4946737;29;20043;-87
2022/07/28 06:29:28;;;;;;;0.00;0.00;;;26.00;61.40;;;;;;4946364;29;20030;-87
2022/07/28 06:31:53;;;;;;;;;;;27.00;59.30;;;;;;4946908;29;20027;-86
2022/07/28 06:34:19;;;;;;;0.00;0.00;;;26.80;59.90;;;;;;4946789;29;20416;-86
2022/07/28 06:36:44;;;;;;;0.20;0.20;;;28.00;57.80;;;;;;4946425;29;20491;-87
2022/07/28 06:39:11;;;;;;;0.00;0.00;;;27.70;58.30;;;;;;4946686;29;20031;-88
2022/07/28 06:41:40;;;;;;;0.00;0.00;;;27.40;57.20;;;;;;4945609;29;20803;-85
2022/07/28 06:44:07;;;;;;;0.25;0.20;;;27.80;59.00;;;;;;4945097;29;20041;-86
2022/07/28 06:46:34;;;;;;;0.05;0.05;;;27.90;56.70;;;;;;4944909;29;20039;-86
2022/07/28 06:48:59;;;;;;;;;;;26.60;58.60;;;;;;4947055;29;20023;-87
2022/07/28 06:51:25;;;;;;;0.00;0.00;;;23.40;64.80;;;;;;4946969;29;19945;-87
2022/07/28 06:53:51;;;;;;;0.00;0.00;;;24.10;65.30;;;;;;4946761;29;20043;-89
2022/07/28 06:56:18;;;;;;;0.00;0.00;;;27.80;58.40;;;;;;4928055;29;20511;-88
2022/07/28 06:58:44;;;;;;;0.05;0.00;;;28.90;56.20;;;;;;4945785;28;20491;-88
2022/07/28 07:01:09;;;;;;;0.03;0.03;;;29.00;55.80;;;;;;4945902;29;20031;-88
2022/07/28 07:03:36;;;;;;;0.32;0.30;;;29.80;55.00;;;;;;4945445;29;20062;-89
2022/07/28 07:06:01;;;;;;;;;;;30.30;53.10;;;;;;4947301;29;20078;-88
2022/07/28 07:08:27;;;;;;;0.00;0.00;;;28.00;55.40;;;;;;4946579;29;19910;-88
2022/07/28 07:10:53;;;;;;;0.10;0.10;;;27.20;58.30;;;;;;4945938;29;20035;-87
2022/07/28 07:13:18;;;;;;;0.10;0.00;;;29.70;53.40;;;;;;4945992;29;20031;-88
2022/07/28 07:15:44;;;;;;;0.10;0.10;;;30.70;52.30;;;;;;4946294;29;20031;-87
2022/07/28 07:18:10;;;;;;;;;;;30.30;52.70;;;;;;4941919;29;20086;-87
2022/07/28 07:20:35;;;;;;;;;;;31.00;50.40;;;;;;4946487;28;19990;-88
2022/07/28 07:23:01;;;;;;;7.85;0.77;;;32.20;49.30;;;;;;4946047;29;19950;-88
2022/07/28 07:25:26;;;;;;;;;;;32.20;47.80;;;;;;4945581;29;20048;-88
2022/07/28 07:27:52;;;;;;;0.08;0.08;;;32.40;47.10;;;;;;4946047;29;19917;-85
2022/07/28 07:30:18;;;;;;;0.10;0.10;;;31.80;47.50;;;;;;4945567;28;20102;-86
2022/07/28 07:32:43;;;;;;;0.15;0.15;;;32.30;49.00;;;;;;4945540;29;20582;-86
2022/07/28 07:35:09;;;;;;;0.00;0.00;;;33.00;48.70;;;;;;4945334;28;20045;-85
2022/07/28 07:37:35;;;;;;;0.00;0.00;;;32.90;47.90;;;;;;4944864;28;20031;-86
2022/07/28 07:40:03;;;;;;;13.48;0.30;;;33.00;46.70;;;;;;4941978;29;20031;-85
2022/07/28 07:42:29;;;;;;;0.00;0.00;;;32.00;47.20;;;;;;4945083;28;20026;-85
2022/07/28 07:44:55;;;;;;;0.00;0.00;;;30.40;49.40;;;;;;4945247;29;20031;-85
2022/07/28 07:47:20;;;;;;;0.05;0.03;;;31.90;48.40;;;;;;4957453;28;20492;-86
2022/07/28 07:49:46;;;;;;;0.10;0.10;;;32.70;47.20;;;;;;4930835;28;20027;-86
2022/07/28 07:52:12;;;;;;;0.03;0.00;;;33.50;46.30;;;;;;4945063;29;20057;-80
2022/07/28 07:54:38;;;;;;;0.20;0.15;;;34.00;46.00;;;;;;4944768;28;20039;-79
2022/07/28 07:57:04;;;;;;;0.10;0.10;;;34.10;46.00;;;;;;4944246;29;20038;-80
2022/07/28 07:59:29;;;;;;;0.00;0.00;;;33.90;46.30;;;;;;4942028;28;20302;-80
2022/07/28 08:01:55;;;;;;;0.00;0.00;;;34.80;45.70;;;;;;4944720;28;20457;-80
2022/07/28 08:04:23;;;;;;;0.00;0.00;;;34.00;45.30;;;;;;4944920;28;20031;-79
2022/07/28 08:06:49;;;;;;;0.00;0.00;;;34.90;44.90;;;;;;4944300;28;20045;-80
2022/07/28 08:09:16;;;;;;;0.00;0.00;;;35.50;44.70;;;;;;4940881;28;20030;-79
2022/07/28 08:11:42;;;;;;;2.35;0.80;;;35.20;44.40;;;;;;4944624;28;20086;-79
2022/07/28 08:14:08;;;;;;;0.00;0.00;;;34.90;43.70;;;;;;4944864;29;20051;-80
2022/07/28 08:16:34;;;;;;;1.35;0.28;;;34.20;45.40;;;;;;4944421;28;20093;-80
2022/07/28 08:19:00;;;;;;;0.00;0.00;;;34.10;45.70;;;;;;4944862;29;20106;-80
2022/07/28 08:21:26;;;;;;;0.00;0.00;;;34.50;44.30;;;;;;4945226;29;20127;-80
2022/07/28 08:23:54;;;;;;;0.00;0.00;;;34.70;44.30;;;;;;4944653;29;20038;-80
2022/07/28 08:26:21;;;;;;;0.00;0.00;;;34.60;44.60;;;;;;4944471;29;20050;-80
2022/07/28 08:28:47;;;;;;;0.10;0.10;;;34.60;43.40;;;;;;4943386;29;20385;-80
2022/07/28 08:31:15;;;;;;;0.30;0.30;;;31.40;47.30;;;;;;4944854;29;20046;-80
2022/07/28 08:33:41;;;;;;;0.30;0.28;;;30.00;50.10;;;;;;4944916;29;20036;-79
2022/07/28 08:36:07;;;;;;;0.13;0.00;;;29.10;51.50;;;;;;4945034;29;20028;-80
2022/07/28 08:38:33;;;;;;;0.22;0.00;;;34.40;47.70;;;;;;4944650;29;20043;-80
2022/07/28 08:41:02;;;;;;;0.00;0.00;;;36.40;44.90;;;;;;4945062;29;20067;-80
2022/07/28 08:43:41;;;;;;;0.28;0.28;;;36.50;43.20;;;;;;4944748;29;20038;-79
2022/07/28 08:46:07;;;;;;;0.00;0.00;;;32.80;45.90;;;;;;4927139;29;20462;-79
2022/07/28 08:48:35;;;;;;;0.10;0.10;;;33.80;45.70;;;;;;4945125;29;20023;-79
2022/07/28 08:51:04;;;;;;;0.00;0.00;;;33.40;45.60;;;;;;4944853;29;20547;-79
2022/07/28 08:53:31;;;;;;;0.10;0.10;;;35.30;45.30;;;;;;4944399;29;20503;-79
2022/07/28 08:56:13;;;;;;;0.00;0.00;;;36.40;42.40;;;;;;4927405;29;20043;-79
2022/07/28 08:58:39;;;;;;;0.00;0.00;;;36.20;43.20;;;;;;4935752;29;20093;-79
2022/07/28 09:01:07;;;;;;;0.03;0.00;;;35.00;43.90;;;;;;4947636;28;20564;-79
2022/07/28 09:03:33;;;;;;;0.00;0.00;;;38.00;43.40;;;;;;4944279;29;20384;-80
2022/07/28 09:05:59;;;;;;;0.50;0.35;;;36.40;42.20;;;;;;4944298;29;20163;-79
2022/07/28 09:08:25;;;;;;;0.00;0.00;;;36.10;43.00;;;;;;4944067;29;20027;-80
2022/07/28 09:10:51;;;;;;;0.10;0.10;;;35.70;43.20;;;;;;4943844;29;20483;-79
2022/07/28 09:13:18;;;;;;;0.00;0.00;;;37.40;41.40;;;;;;4944400;29;20035;-79
2022/07/28 09:15:45;;;;;;;0.30;0.10;;;35.20;42.10;;;;;;4944252;29;20492;-79
2022/07/28 09:18:15;;;;;;;0.10;0.00;;;32.80;43.00;;;;;;4944138;28;20206;-79
2022/07/28 09:20:42;;;;;;;0.00;0.00;;;34.00;43.00;;;;;;4947241;29;20038;-79
2022/07/28 09:23:08;;;;;;;0.00;0.00;;;35.60;43.70;;;;;;4947948;29;20023;-79
2022/07/28 09:25:34;;;;;;;0.08;0.08;;;35.40;42.50;;;;;;4947563;29;20030;-79
2022/07/28 09:28:10;;;;;;;0.20;0.20;;;34.40;43.30;;;;;;4946940;29;20035;-79
2022/07/28 09:30:40;;;;;;;0.00;0.00;;;33.70;44.80;;;;;;4947506;29;20035;-80
2022/07/28 09:33:15;;;;;;;0.08;0.08;;;35.10;43.50;;;;;;4947191;29;20617;-80
2022/07/28 09:35:42;;;;;;;;;;;36.80;42.70;;;;;;4928980;29;20049;-80
2022/07/28 09:38:08;;;;;;;0.32;0.22;;;39.40;40.70;;;;;;4945854;29;20026;-80
2022/07/28 09:40:33;;;;;;;0.00;0.00;;;39.00;40.20;;;;;;4946405;29;20071;-80
2022/07/28 09:42:59;;;;;;;0.00;0.00;;;36.00;41.30;;;;;;4946363;29;20634;-80
2022/07/28 09:45:28;;;;;;;0.00;0.00;;;37.60;41.70;;;;;;4946603;29;20035;-80
2022/07/28 09:48:10;;;;;;;0.10;0.10;;;38.30;40.60;;;;;;4946289;29;20105;-80
2022/07/28 09:50:36;;;;;;;0.00;0.00;;;37.80;40.00;;;;;;4914149;29;20027;-85
2022/07/28 09:53:26;;;;;;;0.05;0.05;;;38.70;40.60;;;;;;4946685;29;20031;-86
2022/07/28 09:55:54;;;;;;;0.00;0.00;;;38.70;39.60;;;;;;4943658;29;20105;-85
2022/07/28 09:58:20;;;;;;;0.25;0.25;;;38.70;39.30;;;;;;4948284;29;20048;-85
2022/07/28 10:00:46;;;;;;;0.25;0.25;;;38.50;39.40;;;;;;4946995;29;20031;-87
2022/07/28 10:03:25;;;;;;;0.03;0.03;;;38.70;39.70;;;;;;4946800;29;20558;-86
2022/07/28 10:05:51;;;;;;;0.00;0.00;;;38.70;39.40;;;;;;4946413;29;20877;-88
2022/07/28 10:08:17;;;;;;;0.08;0.08;;;38.90;39.80;;;;;;4928694;29;20031;-86
2022/07/28 10:10:58;;;;;;;0.10;0.10;;;39.20;39.20;;;;;;4946220;29;20031;-85
2022/07/28 10:13:24;;;;;;;0.03;0.00;;;38.50;38.90;;;;;;4946463;29;20037;-85
2022/07/28 10:16:11;;;;;;;;;;;38.50;39.90;;;;;;4946702;29;20553;-85
2022/07/28 10:18:40;;;;;;;0.20;0.17;;;38.60;38.90;;;;;;4926426;29;19923;-86
2022/07/28 10:21:08;;;;;;;0.10;0.10;;;39.10;38.90;;;;;;4927104;29;20059;-82
2022/07/28 10:23:37;;;;;;;0.00;0.00;;;39.20;38.60;;;;;;4925688;29;20038;-81
2022/07/28 10:26:05;;;;;;;0.10;0.10;;;38.70;38.40;;;;;;4927044;29;20152;-82
2022/07/28 10:28:35;;;;;;;0.00;0.00;;;39.00;38.50;;;;;;4927444;29;20525;-81
2022/07/28 10:31:02;;;;;;;0.50;0.28;;;38.50;38.50;;;;;;4927684;29;20510;-81
2022/07/28 10:33:31;;;;;;;0.00;0.00;;;37.80;39.70;;;;;;4927888;29;20709;-82
2022/07/28 10:35:58;;;;;;;0.10;0.10;;;36.20;39.40;;;;;;4924800;29;20039;-81
2022/07/28 10:38:33;;;;;;;0.10;0.05;;;34.90;40.50;;;;;;4925327;29;20086;-81
2022/07/28 10:41:00;;;;;;;;;;;34.60;41.50;;;;;;4926519;29;20514;-82
2022/07/28 10:43:29;;;;;;;0.00;0.00;;;33.60;43.60;;;;;;4926770;29;19938;-81
2022/07/28 10:45:55;;;;;;;0.05;0.05;;;32.60;43.10;;;;;;4927243;29;20057;-80
2022/07/28 10:48:22;;;;;;;0.00;0.00;;;32.70;44.50;;;;;;4928152;29;20043;-82
2022/07/28 10:50:48;;;;;;;0.00;0.00;;;32.30;45.20;;;;;;4927324;29;20444;-81
2022/07/28 10:53:35;;;;;;;0.85;0.17;;;32.10;44.40;;;;;;4926823;29;20038;-82
2022/07/28 10:56:13;;;;;;;0.00;0.00;;;31.90;45.00;;;;;;4926671;29;20063;-83
2022/07/28 10:58:38;;;;;;;0.00;0.00;;;31.10;47.10;;;;;;4927360;29;20106;-84
2022/07/28 11:01:04;;;;;;;0.30;0.10;;;31.30;47.90;;;;;;4925876;29;20035;-84
2022/07/28 11:03:42;;;;;;;0.00;0.00;;;31.90;47.10;;;;;;4925198;29;20043;-83
2022/07/28 11:06:41;;;;;;;0.00;0.00;;;31.30;45.50;;;;;;4926527;29;20087;-84
2022/07/28 11:09:16;;;;;;;0.13;0.10;;;31.00;46.50;;;;;;4924600;29;20043;-84
2022/07/28 11:11:58;;;;;;;0.10;0.10;;;30.60;46.40;;;;;;4926603;29;20063;-84
2022/07/28 11:14:24;;;;;;;0.03;0.03;;;30.50;47.60;;;;;;4926093;29;20110;-83
2022/07/28 11:17:14;;;;;;;0.00;0.00;;;30.90;46.90;;;;;;4914619;29;20055;-83
2022/07/28 11:19:42;;;;;;;0.00;0.00;;;30.80;47.20;;;;;;4944678;29;20051;-83
2022/07/28 11:22:14;;;;;;;0.00;0.00;;;30.70;46.60;;;;;;4945385;29;20127;-83
2022/07/28 11:25:01;;;;;;;0.08;0.03;;;30.90;47.20;;;;;;4945740;28;20032;-83
2022/07/28 11:27:44;;;;;;;0.08;0.05;;;30.30;46.90;;;;;;4944946;28;20039;-84
2022/07/28 11:30:31;;;;;;;0.10;0.10;;;30.60;48.00;;;;;;4944673;29;20059;-82
2022/07/28 11:33:00;;;;;;;0.00;0.00;;;30.70;46.50;;;;;;4942847;29;20039;-85
2022/07/28 11:35:30;;;;;;;0.00;0.00;;;30.40;47.20;;;;;;4945515;29;20095;-85
2022/07/28 11:38:02;;;;;;;0.00;0.00;;;30.10;47.60;;;;;;4942571;28;20066;-83
2022/07/28 11:40:38;;;;;;;0.00;0.00;;;29.80;46.60;;;;;;4944351;29;20490;-84
2022/07/28 11:45:59;;;;;;;0.13;0.13;;;30.30;48.40;;;;;;4945756;29;20507;-87
2022/07/28 11:48:26;;;;;;;0.32;0.10;;;30.20;46.90;;;;;;4945648;29;20027;-85
2022/07/28 11:51:04;;;;;;;0.10;0.10;;;29.90;46.20;;;;;;4944913;28;20082;-85
2022/07/28 11:53:44;;;;;;;0.10;0.10;;;30.20;48.40;;;;;;4943593;29;20495;-85
2022/07/28 11:56:13;;;;;;;0.10;0.10;;;30.50;48.40;;;;;;4944987;28;20043;-86
2022/07/28 11:58:40;;;;;;;0.00;0.00;;;30.70;46.80;;;;;;4943251;28;20027;-87
2022/07/28 12:01:15;;;;;;;0.38;0.32;;;30.80;47.70;;;;;;4946986;28;20590;-86
2022/07/28 12:03:42;;;;;;;0.45;0.10;;;30.10;47.80;;;;;;4946134;29;20031;-90
2022/07/28 12:06:09;;;;;;;0.38;0.35;;;30.10;49.20;;;;;;4945311;29;20031;-87
2022/07/28 12:08:57;;;;;;;0.00;0.00;;;30.30;48.80;;;;;;4945264;28;20035;-84
2022/07/28 12:11:24;;;;;;;0.00;0.00;;;30.30;49.50;;;;;;4943765;29;20395;-88
2022/07/28 12:14:03;;;;;;;0.00;0.00;;;30.10;48.90;;;;;;4948732;28;20091;-92
2022/07/28 12:16:31;;;;;;;0.30;0.30;;;29.90;46.30;;;;;;4946100;29;20035;-90
2022/07/28 12:18:59;;;;;;;0.00;0.00;;;29.60;48.10;;;;;;4946532;29;20042;-89
2022/07/28 12:21:47;;;;;;;0.05;0.05;;;29.70;48.80;;;;;;4945512;29;20031;-89
2022/07/28 12:24:14;;;;;;;0.10;0.10;;;28.90;47.70;;;;;;4944352;29;20074;-88
2022/07/28 12:26:41;;;;;;;0.05;0.05;;;28.50;48.60;;;;;;4946179;29;20027;-90
2022/07/28 12:29:11;;;;;;;0.05;0.05;;;29.10;49.10;;;;;;4947279;29;20034;-90
2022/07/28 12:31:37;;;;;;;0.15;0.10;;;29.40;49.30;;;;;;4940576;29;20031;-90
2022/07/28 12:34:05;;;;;;;0.00;0.00;;;29.20;49.40;;;;;;4946517;29;20519;-90
2022/07/28 12:36:35;;;;;;;0.00;0.00;;;29.50;48.90;;;;;;4947117;29;20031;-91
2022/07/28 12:39:01;;;;;;;0.00;0.00;;;28.90;47.60;;;;;;4947539;29;20094;-89
2022/07/28 12:41:34;;;;;;;0.00;0.00;;;29.10;49.10;;;;;;4946945;29;20483;-90
2022/07/28 12:44:02;;;;;;;0.00;0.00;;;29.30;50.20;;;;;;4943726;29;20038;-88
2022/07/28 12:46:30;;;;;;;0.03;0.03;;;29.50;50.40;;;;;;4927682;29;20054;-87
2022/07/28 12:48:58;;;;;;;0.20;0.20;;;29.30;49.70;;;;;;4943114;29;20070;-88
2022/07/28 12:51:30;;;;;;;0.00;0.00;;;29.10;49.50;;;;;;4945544;29;20764;-84
2022/07/28 12:53:55;;;;;;;0.10;0.10;;;29.00;47.50;;;;;;4947189;28;20027;-84
2022/07/28 12:56:21;;;;;;;0.05;0.00;;;29.20;49.50;;;;;;4948338;29;20031;-83
2022/07/28 12:58:53;;;;;;;17.73;0.90;;;28.90;46.70;;;;;;4949114;28;20431;-83
2022/07/28 13:01:19;;;;;;;0.00;0.00;;;28.90;48.40;;;;;;4944970;29;20069;-83
2022/07/28 13:03:45;;;;;;;0.00;0.00;;;29.40;51.20;;;;;;4947093;29;20427;-83
2022/07/28 13:06:12;;;;;;;0.03;0.03;;;29.30;49.40;;;;;;4946279;29;20071;-83